sensor_id;sensor_type;location;lat;lon;timestamp;pressure;altitude;pressure_sealevel;temperature
76901;BMP280;65859;43.020;25.096;2023-07-09T00:02:02;99523.22;;;21.81
76901;BMP280;65859;43.020;25.096;2023-07-09T00:04:29;99522.50;;;21.70
76901;BMP280;65859;43.020;25.096;2023-07-09T00:06:57;99518.34;;;21.58
76901;BMP280;65859;43.020;25.096;2023-07-09T00:09:26;99524.06;;;21.71
76901;BMP280;65859;43.020;25.096;2023-07-09T00:11:52;99520.34;;;21.44
76901;BMP280;65859;43.020;25.096;2023-07-09T00:14:18;99528.06;;;21.42
76901;BMP280;65859;43.020;25.096;2023-07-09T00:16:45;99521.94;;;21.30
76901;BMP280;65859;43.020;25.096;2023-07-09T00:19:18;99524.19;;;21.43
76901;BMP280;65859;43.020;25.096;2023-07-09T00:21:46;99525.16;;;20.86
76901;BMP280;65859;43.020;25.096;2023-07-09T00:24:12;99527.41;;;21.06
76901;BMP280;65859;43.020;25.096;2023-07-09T00:26:39;99517.38;;;21.06
76901;BMP280;65859;43.020;25.096;2023-07-09T00:29:11;99537.84;;;20.75
76901;BMP280;65859;43.020;25.096;2023-07-09T00:31:38;99530.13;;;20.70
76901;BMP280;65859;43.020;25.096;2023-07-09T00:34:10;99530.94;;;20.60
76901;BMP280;65859;43.020;25.096;2023-07-09T00:36:38;99533.25;;;20.54
76901;BMP280;65859;43.020;25.096;2023-07-09T00:39:04;99525.94;;;20.48
76901;BMP280;65859;43.020;25.096;2023-07-09T00:41:38;99529.78;;;20.54
76901;BMP280;65859;43.020;25.096;2023-07-09T00:44:25;99531.72;;;20.39
76901;BMP280;65859;43.020;25.096;2023-07-09T00:49:39;99526.28;;;20.53
76901;BMP280;65859;43.020;25.096;2023-07-09T00:54:50;99530.16;;;20.66
76901;BMP280;65859;43.020;25.096;2023-07-09T00:57:20;99523.53;;;20.99
76901;BMP280;65859;43.020;25.096;2023-07-09T00:59:52;99523.63;;;20.46
76901;BMP280;65859;43.020;25.096;2023-07-09T01:02:20;99527.47;;;20.73
76901;BMP280;65859;43.020;25.096;2023-07-09T01:04:51;99524.31;;;21.03
76901;BMP280;65859;43.020;25.096;2023-07-09T01:07:20;99532.47;;;20.54
76901;BMP280;65859;43.020;25.096;2023-07-09T01:09:47;99534.75;;;20.23
76901;BMP280;65859;43.020;25.096;2023-07-09T01:12:16;99539.00;;;20.46
76901;BMP280;65859;43.020;25.096;2023-07-09T01:14:44;99544.00;;;20.33
76901;BMP280;65859;43.020;25.096;2023-07-09T01:17:14;99549.78;;;20.21
76901;BMP280;65859;43.020;25.096;2023-07-09T01:19:43;99553.22;;;20.03
76901;BMP280;65859;43.020;25.096;2023-07-09T01:22:11;99550.09;;;19.98
76901;BMP280;65859;43.020;25.096;2023-07-09T01:30:06;99553.09;;;19.71
76901;BMP280;65859;43.020;25.096;2023-07-09T01:32:33;99562.69;;;19.69
76901;BMP280;65859;43.020;25.096;2023-07-09T01:35:01;99555.78;;;19.71
76901;BMP280;65859;43.020;25.096;2023-07-09T01:37:37;99558.81;;;19.59
76901;BMP280;65859;43.020;25.096;2023-07-09T01:40:05;99556.13;;;19.63
76901;BMP280;65859;43.020;25.096;2023-07-09T01:42:33;99560.44;;;19.82
76901;BMP280;65859;43.020;25.096;2023-07-09T01:44:59;99569.78;;;20.09
76901;BMP280;65859;43.020;25.096;2023-07-09T01:47:27;99562.50;;;20.31
76901;BMP280;65859;43.020;25.096;2023-07-09T01:49:53;99567.50;;;20.22
76901;BMP280;65859;43.020;25.096;2023-07-09T01:52:24;99573.16;;;19.81
76901;BMP280;65859;43.020;25.096;2023-07-09T01:54:51;99580.94;;;20.11
76901;BMP280;65859;43.020;25.096;2023-07-09T01:57:20;99581.34;;;20.17
76901;BMP280;65859;43.020;25.096;2023-07-09T01:59:53;99570.06;;;19.83
76901;BMP280;65859;43.020;25.096;2023-07-09T02:02:24;99575.47;;;19.90
76901;BMP280;65859;43.020;25.096;2023-07-09T02:04:56;99573.41;;;19.47
76901;BMP280;65859;43.020;25.096;2023-07-09T02:07:23;99576.63;;;19.12
76901;BMP280;65859;43.020;25.096;2023-07-09T02:09:50;99573.75;;;19.46
76901;BMP280;65859;43.020;25.096;2023-07-09T02:12:18;99577.84;;;19.98
76901;BMP280;65859;43.020;25.096;2023-07-09T02:14:46;99582.84;;;20.03
76901;BMP280;65859;43.020;25.096;2023-07-09T02:17:14;99591.25;;;19.15
76901;BMP280;65859;43.020;25.096;2023-07-09T02:19:41;99587.19;;;18.87
76901;BMP280;65859;43.020;25.096;2023-07-09T02:22:08;99593.94;;;19.11
76901;BMP280;65859;43.020;25.096;2023-07-09T02:24:34;99593.78;;;18.94
76901;BMP280;65859;43.020;25.096;2023-07-09T02:27:06;99588.78;;;18.96
76901;BMP280;65859;43.020;25.096;2023-07-09T02:29:33;99592.41;;;18.70
76901;BMP280;65859;43.020;25.096;2023-07-09T02:32:00;99583.88;;;18.57
76901;BMP280;65859;43.020;25.096;2023-07-09T02:34:29;99594.50;;;18.91
76901;BMP280;65859;43.020;25.096;2023-07-09T02:36:57;99586.72;;;18.75
76901;BMP280;65859;43.020;25.096;2023-07-09T02:39:24;99595.63;;;18.45
76901;BMP280;65859;43.020;25.096;2023-07-09T02:41:51;99592.09;;;18.75
76901;BMP280;65859;43.020;25.096;2023-07-09T02:44:18;99592.94;;;18.42
76901;BMP280;65859;43.020;25.096;2023-07-09T02:46:45;99597.88;;;18.80
76901;BMP280;65859;43.020;25.096;2023-07-09T02:49:12;99596.19;;;18.62
76901;BMP280;65859;43.020;25.096;2023-07-09T02:51:40;99595.75;;;18.56
76901;BMP280;65859;43.020;25.096;2023-07-09T02:54:07;99599.41;;;18.78
76901;BMP280;65859;43.020;25.096;2023-07-09T02:56:33;99598.47;;;19.04
76901;BMP280;65859;43.020;25.096;2023-07-09T02:59:00;99604.75;;;19.22
76901;BMP280;65859;43.020;25.096;2023-07-09T03:01:26;99603.84;;;19.04
76901;BMP280;65859;43.020;25.096;2023-07-09T03:03:56;99600.78;;;19.05
76901;BMP280;65859;43.020;25.096;2023-07-09T03:06:24;99607.94;;;19.38
76901;BMP280;65859;43.020;25.096;2023-07-09T03:08:52;99596.97;;;19.10
76901;BMP280;65859;43.020;25.096;2023-07-09T03:11:18;99608.50;;;19.14
76901;BMP280;65859;43.020;25.096;2023-07-09T03:13:45;99613.97;;;19.21
76901;BMP280;65859;43.020;25.096;2023-07-09T03:16:12;99612.13;;;19.29
76901;BMP280;65859;43.020;25.096;2023-07-09T03:18:39;99611.88;;;19.52
76901;BMP280;65859;43.020;25.096;2023-07-09T03:21:06;99617.50;;;19.29
76901;BMP280;65859;43.020;25.096;2023-07-09T03:23:32;99615.63;;;19.36
76901;BMP280;65859;43.020;25.096;2023-07-09T03:25:58;99615.59;;;19.33
76901;BMP280;65859;43.020;25.096;2023-07-09T03:28:26;99619.81;;;19.30
76901;BMP280;65859;43.020;25.096;2023-07-09T03:30:54;99622.66;;;19.52
76901;BMP280;65859;43.020;25.096;2023-07-09T03:33:21;99625.59;;;19.36
76901;BMP280;65859;43.020;25.096;2023-07-09T03:35:48;99629.16;;;19.43
76901;BMP280;65859;43.020;25.096;2023-07-09T03:38:15;99625.81;;;19.71
76901;BMP280;65859;43.020;25.096;2023-07-09T03:40:41;99627.59;;;19.49
76901;BMP280;65859;43.020;25.096;2023-07-09T03:43:09;99624.25;;;19.67
76901;BMP280;65859;43.020;25.096;2023-07-09T03:45:36;99624.66;;;19.76
76901;BMP280;65859;43.020;25.096;2023-07-09T03:48:04;99629.59;;;19.56
76901;BMP280;65859;43.020;25.096;2023-07-09T03:50:31;99634.09;;;19.38
76901;BMP280;65859;43.020;25.096;2023-07-09T03:52:57;99634.19;;;19.52
76901;BMP280;65859;43.020;25.096;2023-07-09T03:55:24;99623.53;;;19.77
76901;BMP280;65859;43.020;25.096;2023-07-09T03:57:53;99633.59;;;19.87
76901;BMP280;65859;43.020;25.096;2023-07-09T04:00:20;99636.06;;;20.28
76901;BMP280;65859;43.020;25.096;2023-07-09T04:02:46;99639.16;;;20.37
76901;BMP280;65859;43.020;25.096;2023-07-09T04:05:13;99633.03;;;20.47
76901;BMP280;65859;43.020;25.096;2023-07-09T04:07:39;99639.22;;;20.69
76901;BMP280;65859;43.020;25.096;2023-07-09T04:10:07;99644.63;;;20.72
76901;BMP280;65859;43.020;25.096;2023-07-09T04:12:33;99637.69;;;20.89
76901;BMP280;65859;43.020;25.096;2023-07-09T04:15:00;99637.28;;;20.87
76901;BMP280;65859;43.020;25.096;2023-07-09T04:17:27;99641.16;;;20.76
76901;BMP280;65859;43.020;25.096;2023-07-09T04:19:53;99647.66;;;20.50
76901;BMP280;65859;43.020;25.096;2023-07-09T04:22:19;99649.97;;;20.51
76901;BMP280;65859;43.020;25.096;2023-07-09T04:24:47;99650.34;;;20.53
76901;BMP280;65859;43.020;25.096;2023-07-09T04:27:13;99643.66;;;20.04
76901;BMP280;65859;43.020;25.096;2023-07-09T04:29:40;99650.34;;;20.53
76901;BMP280;65859;43.020;25.096;2023-07-09T04:32:08;99648.44;;;20.50
76901;BMP280;65859;43.020;25.096;2023-07-09T04:34:37;99649.19;;;20.44
76901;BMP280;65859;43.020;25.096;2023-07-09T04:37:09;99653.38;;;20.34
76901;BMP280;65859;43.020;25.096;2023-07-09T04:39:35;99649.38;;;19.89
76901;BMP280;65859;43.020;25.096;2023-07-09T04:42:04;99653.88;;;20.61
76901;BMP280;65859;43.020;25.096;2023-07-09T04:44:31;99649.97;;;21.29
76901;BMP280;65859;43.020;25.096;2023-07-09T04:46:57;99655.78;;;22.33
76901;BMP280;65859;43.020;25.096;2023-07-09T04:49:23;99666.50;;;23.03
76901;BMP280;65859;43.020;25.096;2023-07-09T04:51:50;99666.84;;;21.83
76901;BMP280;65859;43.020;25.096;2023-07-09T04:54:16;99662.00;;;22.30
76901;BMP280;65859;43.020;25.096;2023-07-09T04:56:43;99667.47;;;22.16
76901;BMP280;65859;43.020;25.096;2023-07-09T04:59:12;99667.09;;;22.14
76901;BMP280;65859;43.020;25.096;2023-07-09T05:01:38;99663.53;;;22.24
76901;BMP280;65859;43.020;25.096;2023-07-09T05:04:05;99667.63;;;22.53
76901;BMP280;65859;43.020;25.096;2023-07-09T05:06:34;99663.59;;;22.76
76901;BMP280;65859;43.020;25.096;2023-07-09T05:09:00;99664.72;;;22.82
76901;BMP280;65859;43.020;25.096;2023-07-09T05:11:27;99670.31;;;21.87
76901;BMP280;65859;43.020;25.096;2023-07-09T05:13:55;99665.47;;;22.30
76901;BMP280;65859;43.020;25.096;2023-07-09T05:16:22;99667.50;;;22.09
76901;BMP280;65859;43.020;25.096;2023-07-09T05:18:48;99659.88;;;22.59
76901;BMP280;65859;43.020;25.096;2023-07-09T05:21:14;99672.59;;;23.10
76901;BMP280;65859;43.020;25.096;2023-07-09T05:23:40;99676.84;;;23.08
76901;BMP280;65859;43.020;25.096;2023-07-09T05:26:07;99673.03;;;23.02
76901;BMP280;65859;43.020;25.096;2023-07-09T05:28:33;99669.50;;;23.46
76901;BMP280;65859;43.020;25.096;2023-07-09T05:31:00;99676.34;;;23.20
76901;BMP280;65859;43.020;25.096;2023-07-09T05:33:26;99669.13;;;22.61
76901;BMP280;65859;43.020;25.096;2023-07-09T05:35:52;99671.63;;;23.27
76901;BMP280;65859;43.020;25.096;2023-07-09T05:38:18;99669.75;;;23.24
76901;BMP280;65859;43.020;25.096;2023-07-09T05:40:45;99672.06;;;23.26
76901;BMP280;65859;43.020;25.096;2023-07-09T05:43:11;99680.88;;;23.68
76901;BMP280;65859;43.020;25.096;2023-07-09T05:45:40;99685.75;;;23.46
76901;BMP280;65859;43.020;25.096;2023-07-09T05:48:06;99683.78;;;23.87
76901;BMP280;65859;43.020;25.096;2023-07-09T05:50:34;99683.22;;;24.00
76901;BMP280;65859;43.020;25.096;2023-07-09T05:53:01;99680.75;;;24.39
76901;BMP280;65859;43.020;25.096;2023-07-09T05:55:27;99672.19;;;24.14
76901;BMP280;65859;43.020;25.096;2023-07-09T05:57:54;99670.16;;;24.45
76901;BMP280;65859;43.020;25.096;2023-07-09T06:00:20;99666.41;;;24.39
76901;BMP280;65859;43.020;25.096;2023-07-09T06:02:47;99671.22;;;23.97
76901;BMP280;65859;43.020;25.096;2023-07-09T06:05:14;99672.25;;;24.10
76901;BMP280;65859;43.020;25.096;2023-07-09T06:07:40;99669.19;;;24.35
76901;BMP280;65859;43.020;25.096;2023-07-09T06:10:08;99663.56;;;24.92
76901;BMP280;65859;43.020;25.096;2023-07-09T06:12:35;99660.31;;;25.01
76901;BMP280;65859;43.020;25.096;2023-07-09T06:15:01;99656.25;;;24.89
76901;BMP280;65859;43.020;25.096;2023-07-09T06:17:28;99660.19;;;25.28
76901;BMP280;65859;43.020;25.096;2023-07-09T06:19:55;99656.94;;;25.56
76901;BMP280;65859;43.020;25.096;2023-07-09T06:22:21;99659.44;;;25.67
76901;BMP280;65859;43.020;25.096;2023-07-09T06:24:47;99672.41;;;25.60
76901;BMP280;65859;43.020;25.096;2023-07-09T06:27:13;99666.06;;;25.66
76901;BMP280;65859;43.020;25.096;2023-07-09T06:29:40;99667.50;;;25.71
76901;BMP280;65859;43.020;25.096;2023-07-09T06:32:06;99660.84;;;26.08
76901;BMP280;65859;43.020;25.096;2023-07-09T06:34:34;99663.34;;;25.66
76901;BMP280;65859;43.020;25.096;2023-07-09T06:37:00;99663.81;;;25.61
76901;BMP280;65859;43.020;25.096;2023-07-09T06:39:26;99665.59;;;25.87
76901;BMP280;65859;43.020;25.096;2023-07-09T06:41:52;99659.72;;;25.53
76901;BMP280;65859;43.020;25.096;2023-07-09T06:44:19;99665.09;;;26.09
76901;BMP280;65859;43.020;25.096;2023-07-09T06:46:45;99665.13;;;26.41
76901;BMP280;65859;43.020;25.096;2023-07-09T06:49:13;99665.88;;;25.93
76901;BMP280;65859;43.020;25.096;2023-07-09T06:51:39;99653.13;;;26.55
76901;BMP280;65859;43.020;25.096;2023-07-09T06:54:06;99657.22;;;26.14
76901;BMP280;65859;43.020;25.096;2023-07-09T06:56:34;99652.06;;;26.36
76901;BMP280;65859;43.020;25.096;2023-07-09T06:59:01;99652.41;;;26.67
76901;BMP280;65859;43.020;25.096;2023-07-09T07:01:27;99643.84;;;26.69
76901;BMP280;65859;43.020;25.096;2023-07-09T07:03:53;99643.69;;;26.60
76901;BMP280;65859;43.020;25.096;2023-07-09T07:06:19;99640.22;;;26.88
76901;BMP280;65859;43.020;25.096;2023-07-09T07:08:45;99638.63;;;27.03
76901;BMP280;65859;43.020;25.096;2023-07-09T07:11:12;99640.50;;;26.61
76901;BMP280;65859;43.020;25.096;2023-07-09T07:13:40;99629.94;;;26.79
76901;BMP280;65859;43.020;25.096;2023-07-09T07:16:09;99633.56;;;27.31
76901;BMP280;65859;43.020;25.096;2023-07-09T07:18:35;99626.88;;;26.61
76901;BMP280;65859;43.020;25.096;2023-07-09T07:21:04;99624.44;;;27.63
76901;BMP280;65859;43.020;25.096;2023-07-09T07:23:32;99633.59;;;28.07
76901;BMP280;65859;43.020;25.096;2023-07-09T07:25:58;99625.84;;;27.92
76901;BMP280;65859;43.020;25.096;2023-07-09T07:28:24;99635.69;;;27.77
76901;BMP280;65859;43.020;25.096;2023-07-09T07:31:08;99629.69;;;27.70
76901;BMP280;65859;43.020;25.096;2023-07-09T07:33:35;99626.16;;;27.44
76901;BMP280;65859;43.020;25.096;2023-07-09T07:36:04;99629.69;;;27.82
76901;BMP280;65859;43.020;25.096;2023-07-09T07:38:31;99626.06;;;27.47
76901;BMP280;65859;43.020;25.096;2023-07-09T07:40:57;99626.75;;;27.89
76901;BMP280;65859;43.020;25.096;2023-07-09T07:43:24;99624.00;;;27.51
76901;BMP280;65859;43.020;25.096;2023-07-09T07:45:52;99621.84;;;27.72
76901;BMP280;65859;43.020;25.096;2023-07-09T07:48:18;99622.25;;;28.08
76901;BMP280;65859;43.020;25.096;2023-07-09T07:50:46;99626.78;;;28.80
76901;BMP280;65859;43.020;25.096;2023-07-09T07:53:16;99612.09;;;28.65
76901;BMP280;65859;43.020;25.096;2023-07-09T07:55:42;99623.97;;;28.49
76901;BMP280;65859;43.020;25.096;2023-07-09T07:58:11;99620.91;;;28.60
76901;BMP280;65859;43.020;25.096;2023-07-09T08:00:38;99618.41;;;28.75
76901;BMP280;65859;43.020;25.096;2023-07-09T08:03:05;99610.13;;;29.09
76901;BMP280;65859;43.020;25.096;2023-07-09T08:05:31;99614.44;;;29.19
76901;BMP280;65859;43.020;25.096;2023-07-09T08:07:57;99613.72;;;29.28
76901;BMP280;65859;43.020;25.096;2023-07-09T08:10:23;99606.59;;;28.99
76901;BMP280;65859;43.020;25.096;2023-07-09T08:12:50;99610.06;;;29.31
76901;BMP280;65859;43.020;25.096;2023-07-09T08:15:16;99605.31;;;28.70
76901;BMP280;65859;43.020;25.096;2023-07-09T08:17:43;99603.91;;;28.65
76901;BMP280;65859;43.020;25.096;2023-07-09T08:20:10;99595.75;;;29.18
76901;BMP280;65859;43.020;25.096;2023-07-09T08:22:36;99590.03;;;29.65
76901;BMP280;65859;43.020;25.096;2023-07-09T08:25:04;99593.69;;;29.89
76901;BMP280;65859;43.020;25.096;2023-07-09T08:27:30;99596.09;;;29.69
76901;BMP280;65859;43.020;25.096;2023-07-09T08:29:56;99586.66;;;29.70
76901;BMP280;65859;43.020;25.096;2023-07-09T08:32:23;99593.84;;;29.37
76901;BMP280;65859;43.020;25.096;2023-07-09T08:34:49;99587.16;;;29.96
76901;BMP280;65859;43.020;25.096;2023-07-09T08:37:15;99583.84;;;30.19
76901;BMP280;65859;43.020;25.096;2023-07-09T08:39:41;99595.25;;;30.18
76901;BMP280;65859;43.020;25.096;2023-07-09T08:42:11;99599.66;;;30.24
76901;BMP280;65859;43.020;25.096;2023-07-09T08:49:54;99593.78;;;30.95
76901;BMP280;65859;43.020;25.096;2023-07-09T08:52:26;99597.94;;;30.72
76901;BMP280;65859;43.020;25.096;2023-07-09T08:54:55;99600.19;;;31.25
76901;BMP280;65859;43.020;25.096;2023-07-09T08:57:34;99597.09;;;31.41
76901;BMP280;65859;43.020;25.096;2023-07-09T09:02:52;99617.78;;;31.19
76901;BMP280;65859;43.020;25.096;2023-07-09T09:05:23;99608.50;;;31.49
76901;BMP280;65859;43.020;25.096;2023-07-09T09:08:02;99608.91;;;30.72
76901;BMP280;65859;43.020;25.096;2023-07-09T09:10:47;99608.63;;;30.06
76901;BMP280;65859;43.020;25.096;2023-07-09T09:13:17;99610.06;;;30.99
76901;BMP280;65859;43.020;25.096;2023-07-09T09:15:46;99616.66;;;31.25
76901;BMP280;65859;43.020;25.096;2023-07-09T09:18:20;99597.81;;;30.76
76901;BMP280;65859;43.020;25.096;2023-07-09T09:21:11;99615.09;;;31.90
76901;BMP280;65859;43.020;25.096;2023-07-09T09:23:45;99603.41;;;33.62
76901;BMP280;65859;43.020;25.096;2023-07-09T09:26:34;99611.91;;;36.73
76901;BMP280;65859;43.020;25.096;2023-07-09T09:29:01;99598.38;;;34.27
76901;BMP280;65859;43.020;25.096;2023-07-09T09:31:36;99624.00;;;35.39
76901;BMP280;65859;43.020;25.096;2023-07-09T09:34:02;99629.41;;;38.43
76901;BMP280;65859;43.020;25.096;2023-07-09T09:36:28;99627.81;;;37.88
76901;BMP280;65859;43.020;25.096;2023-07-09T09:38:55;99617.91;;;38.28
76901;BMP280;65859;43.020;25.096;2023-07-09T09:41:25;99638.97;;;37.77
76901;BMP280;65859;43.020;25.096;2023-07-09T09:43:56;99621.56;;;34.72
76901;BMP280;65859;43.020;25.096;2023-07-09T09:46:27;99619.09;;;33.36
76901;BMP280;65859;43.020;25.096;2023-07-09T09:48:59;99621.06;;;31.88
76901;BMP280;65859;43.020;25.096;2023-07-09T09:51:27;99614.16;;;31.93
76901;BMP280;65859;43.020;25.096;2023-07-09T09:53:58;99615.75;;;32.23
76901;BMP280;65859;43.020;25.096;2023-07-09T09:56:36;99611.81;;;31.20
76901;BMP280;65859;43.020;25.096;2023-07-09T09:59:05;99613.09;;;31.10
76901;BMP280;65859;43.020;25.096;2023-07-09T10:01:34;99618.56;;;31.76
76901;BMP280;65859;43.020;25.096;2023-07-09T10:04:03;99624.97;;;31.97
76901;BMP280;65859;43.020;25.096;2023-07-09T10:06:46;99617.34;;;31.77
76901;BMP280;65859;43.020;25.096;2023-07-09T10:09:19;99612.34;;;31.42
76901;BMP280;65859;43.020;25.096;2023-07-09T10:12:14;99614.16;;;31.93
76901;BMP280;65859;43.020;25.096;2023-07-09T10:14:51;99617.38;;;32.30
76901;BMP280;65859;43.020;25.096;2023-07-09T10:17:46;99611.69;;;31.95
76901;BMP280;65859;43.020;25.096;2023-07-09T10:20:35;99612.19;;;32.32
76901;BMP280;65859;43.020;25.096;2023-07-09T10:23:27;99603.16;;;32.32
76901;BMP280;65859;43.020;25.096;2023-07-09T10:26:01;99596.41;;;30.90
76901;BMP280;65859;43.020;25.096;2023-07-09T10:39:46;99605.69;;;31.58
76901;BMP280;65859;43.020;25.096;2023-07-09T10:42:28;99609.78;;;31.86
76901;BMP280;65859;43.020;25.096;2023-07-09T10:45:03;99596.06;;;32.25
76901;BMP280;65859;43.020;25.096;2023-07-09T10:47:35;99599.16;;;31.56
76901;BMP280;65859;43.020;25.096;2023-07-09T10:50:05;99594.97;;;31.36
76901;BMP280;65859;43.020;25.096;2023-07-09T10:52:37;99602.53;;;30.75
76901;BMP280;65859;43.020;25.096;2023-07-09T10:55:25;99597.69;;;31.45
76901;BMP280;65859;43.020;25.096;2023-07-09T10:58:03;99592.16;;;31.78
76901;BMP280;65859;43.020;25.096;2023-07-09T11:00:40;99598.03;;;31.62
76901;BMP280;65859;43.020;25.096;2023-07-09T11:06:08;99589.72;;;31.95
76901;BMP280;65859;43.020;25.096;2023-07-09T11:08:38;99590.34;;;31.75
76901;BMP280;65859;43.020;25.096;2023-07-09T11:11:08;99585.63;;;31.19
76901;BMP280;65859;43.020;25.096;2023-07-09T11:13:43;99593.88;;;31.43
76901;BMP280;65859;43.020;25.096;2023-07-09T11:16:15;99593.28;;;31.06
76901;BMP280;65859;43.020;25.096;2023-07-09T11:18:58;99592.75;;;30.84
76901;BMP280;65859;43.020;25.096;2023-07-09T11:21:24;99595.81;;;30.76
76901;BMP280;65859;43.020;25.096;2023-07-09T11:23:54;99587.47;;;31.13
76901;BMP280;65859;43.020;25.096;2023-07-09T11:26:23;99588.78;;;30.94
76901;BMP280;65859;43.020;25.096;2023-07-09T11:31:39;99589.44;;;30.52
76901;BMP280;65859;43.020;25.096;2023-07-09T11:34:09;99591.56;;;30.75
76901;BMP280;65859;43.020;25.096;2023-07-09T11:39:42;99576.81;;;30.55
76901;BMP280;65859;43.020;25.096;2023-07-09T11:45:12;99581.97;;;30.62
76901;BMP280;65859;43.020;25.096;2023-07-09T11:50:15;99571.34;;;31.06
76901;BMP280;65859;43.020;25.096;2023-07-09T11:52:48;99568.31;;;31.04
76901;BMP280;65859;43.020;25.096;2023-07-09T11:55:41;99570.69;;;31.11
76901;BMP280;65859;43.020;25.096;2023-07-09T11:58:14;99570.06;;;30.74
76901;BMP280;65859;43.020;25.096;2023-07-09T12:00:43;99558.53;;;31.03
76901;BMP280;65859;43.020;25.096;2023-07-09T12:03:27;99566.50;;;30.92
76901;BMP280;65859;43.020;25.096;2023-07-09T12:06:00;99557.59;;;30.73
76901;BMP280;65859;43.020;25.096;2023-07-09T12:08:37;99562.31;;;31.14
76901;BMP280;65859;43.020;25.096;2023-07-09T12:11:05;99556.53;;;30.70
76901;BMP280;65859;43.020;25.096;2023-07-09T12:13:40;99557.50;;;30.40
76901;BMP280;65859;43.020;25.096;2023-07-09T12:18:48;99553.81;;;31.12
76901;BMP280;65859;43.020;25.096;2023-07-09T12:21:15;99552.94;;;31.30
76901;BMP280;65859;43.020;25.096;2023-07-09T12:23:41;99548.56;;;30.82
76901;BMP280;65859;43.020;25.096;2023-07-09T12:26:15;99548.19;;;30.56
76901;BMP280;65859;43.020;25.096;2023-07-09T12:28:41;99537.09;;;30.50
76901;BMP280;65859;43.020;25.096;2023-07-09T12:31:15;99539.81;;;30.68
76901;BMP280;65859;43.020;25.096;2023-07-09T12:33:54;99538.78;;;30.57
76901;BMP280;65859;43.020;25.096;2023-07-09T12:36:25;99541.03;;;30.67
76901;BMP280;65859;43.020;25.096;2023-07-09T12:38:57;99539.97;;;30.56
76901;BMP280;65859;43.020;25.096;2023-07-09T12:41:31;99531.25;;;30.75
76901;BMP280;65859;43.020;25.096;2023-07-09T12:43:59;99535.41;;;31.04
76901;BMP280;65859;43.020;25.096;2023-07-09T12:46:26;99524.84;;;30.78
76901;BMP280;65859;43.020;25.096;2023-07-09T12:48:55;99525.19;;;31.04
76901;BMP280;65859;43.020;25.096;2023-07-09T12:51:25;99527.03;;;30.98
76901;BMP280;65859;43.020;25.096;2023-07-09T12:54:14;99515.78;;;30.54
76901;BMP280;65859;43.020;25.096;2023-07-09T12:56:41;99521.31;;;30.87
76901;BMP280;65859;43.020;25.096;2023-07-09T12:59:19;99516.03;;;30.65
76901;BMP280;65859;43.020;25.096;2023-07-09T13:01:55;99517.66;;;31.14
76901;BMP280;65859;43.020;25.096;2023-07-09T13:04:29;99517.72;;;30.63
76901;BMP280;65859;43.020;25.096;2023-07-09T13:06:57;99515.91;;;30.60
76901;BMP280;65859;43.020;25.096;2023-07-09T13:09:27;99511.09;;;30.36
76901;BMP280;65859;43.020;25.096;2023-07-09T13:11:57;99507.88;;;30.38
76901;BMP280;65859;43.020;25.096;2023-07-09T13:14:32;99510.97;;;30.82
76901;BMP280;65859;43.020;25.096;2023-07-09T13:17:08;99509.19;;;30.61
76901;BMP280;65859;43.020;25.096;2023-07-09T13:19:35;99508.00;;;30.43
76901;BMP280;65859;43.020;25.096;2023-07-09T13:22:04;99505.16;;;30.29
76901;BMP280;65859;43.020;25.096;2023-07-09T13:24:31;99507.22;;;30.52
76901;BMP280;65859;43.020;25.096;2023-07-09T13:27:01;99512.97;;;30.63
76901;BMP280;65859;43.020;25.096;2023-07-09T13:29:31;99515.00;;;30.54
76901;BMP280;65859;43.020;25.096;2023-07-09T13:31:57;99509.56;;;30.35
76901;BMP280;65859;43.020;25.096;2023-07-09T13:34:26;99509.91;;;30.70
76901;BMP280;65859;43.020;25.096;2023-07-09T13:36:54;99513.75;;;30.64
76901;BMP280;65859;43.020;25.096;2023-07-09T13:39:23;99514.84;;;30.57
76901;BMP280;65859;43.020;25.096;2023-07-09T13:41:51;99509.25;;;30.42
76901;BMP280;65859;43.020;25.096;2023-07-09T13:44:24;99514.25;;;30.44
76901;BMP280;65859;43.020;25.096;2023-07-09T13:46:52;99508.22;;;30.31
76901;BMP280;65859;43.020;25.096;2023-07-09T13:49:19;99518.84;;;30.29
76901;BMP280;65859;43.020;25.096;2023-07-09T13:51:48;99519.03;;;30.34
76901;BMP280;65859;43.020;25.096;2023-07-09T13:54:24;99526.16;;;30.23
76901;BMP280;65859;43.020;25.096;2023-07-09T13:56:52;99517.06;;;29.98
76901;BMP280;65859;43.020;25.096;2023-07-09T13:59:26;99517.69;;;30.02
76901;BMP280;65859;43.020;25.096;2023-07-09T14:01:55;99519.19;;;30.13
76901;BMP280;65859;43.020;25.096;2023-07-09T14:04:22;99514.13;;;30.38
76901;BMP280;65859;43.020;25.096;2023-07-09T14:06:52;99517.63;;;30.39
76901;BMP280;65859;43.020;25.096;2023-07-09T14:09:21;99520.97;;;30.34
76901;BMP280;65859;43.020;25.096;2023-07-09T14:11:51;99514.63;;;30.10
76901;BMP280;65859;43.020;25.096;2023-07-09T14:14:23;99521.00;;;30.25
76901;BMP280;65859;43.020;25.096;2023-07-09T14:16:51;99520.84;;;30.19
76901;BMP280;65859;43.020;25.096;2023-07-09T14:19:19;99530.41;;;30.15
76901;BMP280;65859;43.020;25.096;2023-07-09T14:21:47;99522.06;;;30.18
76901;BMP280;65859;43.020;25.096;2023-07-09T14:24:40;99516.13;;;30.11
76901;BMP280;65859;43.020;25.096;2023-07-09T14:27:09;99513.69;;;30.13
76901;BMP280;65859;43.020;25.096;2023-07-09T14:29:36;99509.75;;;30.14
76901;BMP280;65859;43.020;25.096;2023-07-09T14:32:03;99516.00;;;30.14
76901;BMP280;65859;43.020;25.096;2023-07-09T14:34:32;99514.16;;;29.84
76901;BMP280;65859;43.020;25.096;2023-07-09T14:37:00;99508.69;;;30.11
76901;BMP280;65859;43.020;25.096;2023-07-09T14:39:28;99508.97;;;30.04
76901;BMP280;65859;43.020;25.096;2023-07-09T14:41:56;99506.41;;;29.82
76901;BMP280;65859;43.020;25.096;2023-07-09T14:46:50;99510.19;;;29.66
76901;BMP280;65859;43.020;25.096;2023-07-09T14:49:18;99506.56;;;29.88
76901;BMP280;65859;43.020;25.096;2023-07-09T14:51:44;99509.00;;;29.95
76901;BMP280;65859;43.020;25.096;2023-07-09T14:54:29;99515.69;;;29.94
76901;BMP280;65859;43.020;25.096;2023-07-09T14:56:57;99511.28;;;29.87
76901;BMP280;65859;43.020;25.096;2023-07-09T14:59:24;99510.34;;;29.81